Time;durP1;ratioP1;P1;durP2;ratioP2;P2;SDS_P1;SDS_P2;PMS_P1;PMS_P2;Temp;Humidity;BMP_temperature;BMP_pressure;BME280_temperature;BME280_humidity;BME280_pressure;Samples;Min_cycle;Max_cycle;Signal;HPM_P1;HPM_P2
2022/02/14 00:02:15;;;;;;;16.50;8.10;;;;;;;-0.61;94.33;99673.75;5102788;28;20106;-74
2022/02/14 00:05:02;;;;;;;20.00;7.78;;;;;;;-0.64;94.87;99673.69;5117025;28;20043;-74
2022/02/14 00:07:47;;;;;;;16.92;9.15;;;;;;;-0.67;94.61;99670.22;5117236;28;20048;-74
2022/02/14 00:10:32;;;;;;;19.00;9.40;;;;;;;-0.77;94.40;99652.03;5116868;28;20357;-74
2022/02/14 00:13:16;;;;;;;21.50;8.32;;;;;;;-0.76;94.82;99669.19;5117508;28;20042;-74
2022/02/14 00:16:01;;;;;;;21.05;10.07;;;;;;;-0.72;95.49;99668.41;5117562;28;20040;-74
2022/02/14 00:18:45;;;;;;;22.40;9.98;;;;;;;-0.69;95.16;99674.44;5117723;28;20047;-74
2022/02/14 00:21:30;;;;;;;21.38;10.30;;;;;;;-0.67;95.36;99667.63;5116393;28;20039;-74
2022/02/14 00:24:15;;;;;;;20.00;9.30;;;;;;;-0.71;96.08;99654.72;5116536;28;20043;-74
2022/02/14 00:26:59;;;;;;;20.95;9.55;;;;;;;-0.67;96.84;99655.63;5117324;28;20353;-74
2022/02/14 00:29:44;;;;;;;18.85;9.30;;;;;;;-0.59;96.12;99653.19;5117239;28;20407;-74
2022/02/14 00:32:29;;;;;;;19.42;9.80;;;;;;;-0.56;96.13;99651.53;5117204;28;20047;-74
2022/02/14 00:35:14;;;;;;;21.55;9.93;;;;;;;-0.57;96.33;99639.53;5116463;28;20440;-74
2022/02/14 00:37:58;;;;;;;22.38;9.15;;;;;;;-0.64;96.26;99635.13;5116444;28;20035;-74
2022/02/14 00:40:43;;;;;;;21.30;9.80;;;;;;;-0.56;95.88;99638.66;5117028;28;20044;-74
2022/02/14 00:43:27;;;;;;;18.92;9.50;;;;;;;-0.53;96.03;99650.72;5116271;28;20044;-74
2022/02/14 00:46:11;;;;;;;17.48;8.90;;;;;;;-0.61;96.58;99630.03;5117022;28;20036;-74
2022/02/14 00:48:55;;;;;;;18.23;9.48;;;;;;;-0.62;96.51;99627.41;5116979;28;20353;-74
2022/02/14 00:51:40;;;;;;;19.38;9.35;;;;;;;-0.59;96.92;99630.91;5117143;28;20043;-74
2022/02/14 00:54:24;;;;;;;17.45;9.55;;;;;;;-0.57;97.00;99621.50;5116077;28;20071;-74
2022/02/14 00:57:08;;;;;;;17.23;9.25;;;;;;;-0.49;97.40;99622.50;5116734;28;20039;-74
2022/02/14 00:59:53;;;;;;;18.50;8.57;;;;;;;-0.53;97.27;99627.56;5116790;28;20459;-74
2022/02/14 01:02:38;;;;;;;17.67;9.80;;;;;;;-0.57;98.02;99623.22;5115977;28;20043;-74
2022/02/14 01:05:22;;;;;;;17.55;9.63;;;;;;;-0.50;97.65;99622.47;5115871;28;20040;-74
2022/02/14 01:08:07;;;;;;;14.93;8.35;;;;;;;-0.45;97.73;99633.72;5116021;28;20040;-74
2022/02/14 01:10:51;;;;;;;18.88;8.85;;;;;;;-0.42;97.88;99623.47;5116772;28;20066;-74
2022/02/14 01:13:36;;;;;;;19.35;11.30;;;;;;;-0.49;97.63;99625.09;5115797;28;20039;-74
2022/02/14 01:16:20;;;;;;;16.58;9.35;;;;;;;-0.56;97.53;99614.66;5115649;28;20349;-74
2022/02/14 01:19:05;;;;;;;20.58;11.35;;;;;;;-0.48;98.06;99620.81;5116564;28;20035;-74
2022/02/14 01:21:49;;;;;;;21.38;10.65;;;;;;;-0.47;98.08;99622.53;5115438;28;20383;-74
2022/02/14 01:24:35;;;;;;;15.23;8.68;;;;;;;-0.48;98.85;99613.94;5115709;28;20510;-74
2022/02/14 01:27:19;;;;;;;19.23;9.70;;;;;;;-0.55;99.00;99596.69;5115634;28;20115;-73
2022/02/14 01:30:06;;;;;;;21.63;10.32;;;;;;;-0.55;99.45;99606.97;5116395;28;20345;-74
2022/02/14 01:32:50;;;;;;;17.88;9.90;;;;;;;-0.57;100.00;99605.22;5116439;28;20047;-74
2022/02/14 01:35:36;;;;;;;19.80;11.10;;;;;;;-0.57;99.57;99602.63;5115804;28;20043;-73
2022/02/14 01:38:20;;;;;;;17.52;9.77;;;;;;;-0.61;99.95;99606.88;5116300;28;20353;-73
2022/02/14 01:41:05;;;;;;;16.83;9.63;;;;;;;-0.64;100.00;99600.81;5115525;28;20047;-73
2022/02/14 01:43:49;;;;;;;15.52;8.75;;;;;;;-0.74;100.00;99592.94;5115700;28;20040;-73
2022/02/14 01:46:34;;;;;;;13.05;7.85;;;;;;;-0.73;100.00;99594.66;5116232;28;20036;-74
2022/02/14 01:49:18;;;;;;;14.80;8.30;;;;;;;-0.72;100.00;99580.94;5116165;28;20036;-74
2022/02/14 01:52:06;;;;;;;14.32;8.13;;;;;;;-0.71;100.00;99592.13;5116211;28;20050;-73
2022/02/14 01:54:51;;;;;;;15.82;9.00;;;;;;;-0.74;100.00;99584.34;5115628;28;20097;-73
2022/02/14 01:57:36;;;;;;;20.17;9.20;;;;;;;-0.83;100.00;99574.75;5115428;28;20153;-73
2022/02/14 02:00:20;;;;;;;21.38;9.40;;;;;;;-0.86;100.00;99577.28;5115282;28;20115;-73
2022/02/14 02:03:06;;;;;;;17.50;9.68;;;;;;;-0.96;100.00;99571.13;5116035;28;20036;-73
2022/02/14 02:05:52;;;;;;;17.08;9.75;;;;;;;-0.95;100.00;99572.84;5116032;28;20044;-74
2022/02/14 02:08:36;;;;;;;19.23;10.05;;;;;;;-0.93;100.00;99574.59;5116049;28;20046;-73
2022/02/14 02:14:25;;;;;;;15.70;10.10;;;;;;;-0.99;100.00;99560.78;5115123;28;20043;-73
2022/02/14 02:17:09;;;;;;;15.57;9.20;;;;;;;-0.97;100.00;99555.69;5100885;28;20426;-74
2022/02/14 02:19:54;;;;;;;19.55;11.65;;;;;;;-1.03;100.00;99558.13;5119745;28;20043;-73
2022/02/14 02:22:39;;;;;;;16.77;9.55;;;;;;;-1.04;100.00;99548.66;5119592;28;20047;-73
2022/02/14 02:25:24;;;;;;;15.85;8.40;;;;;;;-1.08;100.00;99541.75;5118955;28;20044;-73
2022/02/14 02:28:08;;;;;;;21.85;10.52;;;;;;;-1.04;100.00;99549.56;5118859;28;20051;-73
2022/02/14 02:30:53;;;;;;;24.70;11.82;;;;;;;-1.01;100.00;99539.34;5119591;28;20054;-73
2022/02/14 02:33:37;;;;;;;22.67;11.80;;;;;;;-0.97;100.00;99551.41;5119521;28;20035;-74
2022/02/14 02:36:22;;;;;;;21.50;11.95;;;;;;;-0.95;100.00;99546.25;5119479;28;20043;-73
2022/02/14 02:39:06;;;;;;;19.05;10.85;;;;;;;-0.99;100.00;99537.63;5104440;28;20074;-74
2022/02/14 02:41:52;;;;;;;20.85;10.40;;;;;;;-0.96;100.00;99537.69;5118629;28;20040;-74
2022/02/14 02:44:37;;;;;;;20.75;10.48;;;;;;;-0.95;100.00;99547.13;5119518;28;20039;-73
2022/02/14 02:47:23;;;;;;;24.10;12.23;;;;;;;-1.02;100.00;99535.00;5119280;28;20040;-73
2022/02/14 02:50:08;;;;;;;36.25;17.58;;;;;;;-1.05;100.00;99541.81;5118471;28;20035;-73
2022/02/14 02:52:53;;;;;;;40.22;19.55;;;;;;;-1.06;100.00;99529.81;5118702;28;20040;-73
2022/02/14 02:55:37;;;;;;;35.88;19.48;;;;;;;-1.07;100.00;99539.22;5119112;28;20058;-73
2022/02/14 02:58:21;;;;;;;28.65;15.63;;;;;;;-1.04;100.00;99534.13;5118977;28;20047;-73
2022/02/14 03:01:06;;;;;;;22.50;11.77;;;;;;;-1.14;100.00;99515.94;5118293;28;20064;-74
2022/02/14 03:03:50;;;;;;;16.23;9.57;;;;;;;-0.92;100.00;99530.03;5119162;28;20043;-73
2022/02/14 03:06:35;;;;;;;14.07;9.57;;;;;;;-0.92;100.00;99519.75;5103808;28;20421;-73
2022/02/14 03:09:19;;;;;;;15.15;8.60;;;;;;;-0.86;100.00;99518.13;5118903;28;20039;-73
2022/02/14 03:12:04;;;;;;;16.48;9.10;;;;;;;-0.77;100.00;99517.44;5118877;28;20039;-73
2022/02/14 03:14:49;;;;;;;13.45;7.50;;;;;;;-0.81;100.00;99516.53;5118090;28;20044;-73
2022/02/14 03:17:33;;;;;;;12.30;8.18;;;;;;;-0.77;100.00;99514.84;5118860;28;20047;-73
2022/02/14 03:20:18;;;;;;;15.55;9.65;;;;;;;-0.80;100.00;99507.09;5118555;28;20044;-73
2022/02/14 03:23:02;;;;;;;14.40;8.95;;;;;;;-0.72;100.00;99513.19;5117821;28;20069;-73
2022/02/14 03:25:47;;;;;;;18.98;10.15;;;;;;;-0.68;100.00;99504.72;5103622;28;20039;-73
2022/02/14 03:28:32;;;;;;;21.05;11.35;;;;;;;-0.63;100.00;99509.91;5103381;28;20051;-73
2022/02/14 03:31:17;;;;;;;31.15;15.40;;;;;;;-0.59;100.00;99511.69;5117905;28;20108;-73
2022/02/14 03:34:01;;;;;;;38.95;18.85;;;;;;;-0.58;100.00;99510.88;5118477;28;20043;-73
2022/02/14 03:36:46;;;;;;;43.88;20.70;;;;;;;-0.58;100.00;99510.88;5118381;28;20353;-73
2022/02/14 03:39:31;;;;;;;46.92;20.92;;;;;;;-0.51;100.00;99503.25;5117606;28;20115;-73
2022/02/14 03:42:15;;;;;;;29.40;14.93;;;;;;;-0.48;100.00;99494.72;5118094;28;20051;-74
2022/02/14 03:44:59;;;;;;;36.72;15.88;;;;;;;-0.55;100.00;99482.63;5117497;28;20047;-74
2022/02/14 03:47:44;;;;;;;27.55;12.23;;;;;;;-0.44;100.00;99500.75;5118124;28;20040;-73
2022/02/14 03:50:28;;;;;;;23.05;11.40;;;;;;;-0.42;100.00;99489.66;5117996;28;20047;-73
2022/02/14 03:53:13;;;;;;;24.23;12.43;;;;;;;-0.41;100.00;99480.22;5117997;28;20048;-73
2022/02/14 03:55:57;;;;;;;23.65;10.88;;;;;;;-0.32;100.00;99499.22;5117385;28;20078;-73
2022/02/14 03:58:41;;;;;;;19.35;9.38;;;;;;;-0.23;100.00;99488.19;5117935;28;20044;-74
2022/02/14 04:01:26;;;;;;;18.98;9.52;;;;;;;-0.20;100.00;99483.06;5117680;28;20039;-73
2022/02/14 04:04:11;;;;;;;17.15;10.45;;;;;;;-0.15;100.00;99489.16;5117745;28;20046;-73
2022/02/14 04:06:55;;;;;;;18.30;10.48;;;;;;;-0.13;100.00;99478.84;5117040;28;20039;-73
2022/02/14 04:09:40;;;;;;;18.50;10.05;;;;;;;-0.11;100.00;99472.91;5117822;28;20040;-74
2022/02/14 04:12:25;;;;;;;20.33;9.48;;;;;;;-0.10;100.00;99469.50;5116914;28;20048;-73
2022/02/14 04:15:11;;;;;;;17.10;10.13;;;;;;;-0.05;100.00;99474.69;5117497;28;20036;-73
2022/02/14 04:17:56;;;;;;;20.13;10.35;;;;;;;-0.04;100.00;99461.81;5117601;28;20051;-73
2022/02/14 04:20:40;;;;;;;19.67;10.10;;;;;;;-0.02;100.00;99465.28;5116645;28;20052;-73
2022/02/14 04:23:24;;;;;;;18.92;10.82;;;;;;;0.08;100.00;99466.25;5116477;28;20050;-73
2022/02/14 04:26:09;;;;;;;21.75;11.27;;;;;;;0.07;100.00;99469.69;5116671;28;20420;-73
2022/02/14 04:28:53;;;;;;;23.63;13.30;;;;;;;0.10;100.00;99462.00;5117423;28;20044;-73
2022/02/14 04:31:38;;;;;;;28.60;14.75;;;;;;;0.09;100.00;99461.97;5117226;28;20043;-73
2022/02/14 04:34:22;;;;;;;40.47;20.20;;;;;;;0.11;100.00;99462.88;5116453;28;20412;-73
2022/02/14 04:37:07;;;;;;;57.15;25.23;;;;;;;0.08;100.00;99450.81;5102128;28;20421;-74
2022/02/14 04:39:52;;;;;;;54.03;23.23;;;;;;;0.11;100.00;99449.97;5116626;28;20131;-73
2022/02/14 04:42:36;;;;;;;47.72;20.13;;;;;;;0.01;100.00;99445.59;5116365;28;20039;-73
2022/02/14 04:45:21;;;;;;;46.25;20.20;;;;;;;0.02;100.00;99443.00;5101874;28;20056;-73
2022/02/14 04:48:05;;;;;;;53.97;24.75;;;;;;;0.02;100.00;99442.16;5101947;28;20052;-73
2022/02/14 04:50:50;;;;;;;54.67;24.15;;;;;;;0.04;100.00;99443.91;5117013;28;20039;-73
2022/02/14 04:53:34;;;;;;;53.25;26.52;;;;;;;-0.01;100.00;99443.81;5116931;28;20101;-73
2022/02/14 04:56:19;;;;;;;43.33;20.67;;;;;;;0.05;100.00;99429.31;5116860;28;20047;-73
2022/02/14 04:59:03;;;;;;;42.92;20.58;;;;;;;0.07;100.00;99435.34;5117090;28;20063;-73
2022/02/14 05:01:48;;;;;;;55.00;22.45;;;;;;;0.06;100.00;99423.31;5116636;28;20421;-73
2022/02/14 05:04:32;;;;;;;48.83;19.67;;;;;;;0.15;100.00;99434.56;5116774;28;20430;-73
2022/02/14 05:07:17;;;;;;;40.85;19.25;;;;;;;0.11;100.00;99427.66;5116613;28;20082;-73
2022/02/14 05:10:02;;;;;;;33.55;17.08;;;;;;;0.11;100.00;99437.09;5116697;28;20051;-73
2022/02/14 05:12:46;;;;;;;32.70;16.50;;;;;;;0.16;100.00;99430.28;5116689;28;20430;-73
2022/02/14 05:15:31;;;;;;;32.45;18.40;;;;;;;0.22;100.00;99432.91;5116528;28;20422;-73
2022/02/14 05:18:16;;;;;;;31.88;17.63;;;;;;;0.20;100.00;99430.34;5116427;28;20344;-74
2022/02/14 05:21:01;;;;;;;30.75;18.08;;;;;;;0.22;100.00;99432.91;5115768;28;20040;-73
2022/02/14 05:23:45;;;;;;;34.85;20.67;;;;;;;0.33;100.00;99431.34;5116428;28;20054;-73
2022/02/14 05:26:29;;;;;;;26.63;14.52;;;;;;;0.34;100.00;99437.34;5115660;28;20330;-73
2022/02/14 05:29:14;;;;;;;22.27;14.07;;;;;;;0.40;100.00;99427.97;5115737;28;20044;-73
2022/02/14 05:31:59;;;;;;;25.88;16.08;;;;;;;0.47;100.00;99434.03;5116474;28;20039;-73
2022/02/14 05:34:43;;;;;;;28.45;16.80;;;;;;;0.32;100.00;99406.41;5115579;28;20035;-73
2022/02/14 05:37:27;;;;;;;26.23;15.73;;;;;;;0.46;100.00;99429.75;5115549;28;20612;-73
2022/02/14 05:40:11;;;;;;;26.65;15.50;;;;;;;0.53;100.00;99430.66;5116116;28;20101;-73
2022/02/14 05:42:56;;;;;;;25.35;14.98;;;;;;;0.58;100.00;99434.13;5115537;28;20349;-73
2022/02/14 05:45:40;;;;;;;21.00;12.75;;;;;;;0.58;100.00;99429.84;5116423;28;20426;-73
2022/02/14 05:48:26;;;;;;;22.55;12.98;;;;;;;0.55;100.00;99426.38;5116126;28;20051;-72
2022/02/14 05:51:11;;;;;;;21.85;12.68;;;;;;;0.64;100.00;99429.91;5115586;28;20114;-73
2022/02/14 05:53:55;;;;;;;24.48;13.07;;;;;;;0.65;100.00;99430.75;5119066;28;20051;-73
2022/02/14 05:56:39;;;;;;;25.13;13.48;;;;;;;0.69;100.00;99424.81;5105181;28;20043;-73
2022/02/14 05:59:24;;;;;;;22.08;13.40;;;;;;;0.61;100.00;99429.88;5119032;28;20433;-73
2022/02/14 06:02:09;;;;;;;21.95;13.38;;;;;;;0.64;100.00;99429.91;5119044;28;20453;-76
2022/02/14 06:04:54;;;;;;;25.05;14.30;;;;;;;0.69;100.00;99441.13;5116791;28;20043;-79
2022/02/14 06:07:38;;;;;;;20.13;11.65;;;;;;;0.74;100.00;99438.56;5117259;28;20036;-79
2022/02/14 06:10:22;;;;;;;22.35;13.07;;;;;;;0.68;100.00;99441.09;5102895;28;20035;-79
2022/02/14 06:13:06;;;;;;;22.45;13.50;;;;;;;0.77;100.00;99438.59;5117139;28;20494;-79
2022/02/14 06:15:50;;;;;;;24.48;12.93;;;;;;;0.81;100.00;99442.06;5117119;28;20069;-79
2022/02/14 06:18:35;;;;;;;18.80;12.00;;;;;;;0.76;100.00;99430.88;5117243;28;20039;-79
2022/02/14 06:21:19;;;;;;;20.95;12.07;;;;;;;0.80;100.00;99442.94;5118482;28;20100;-79
2022/02/14 06:24:04;;;;;;;21.13;11.82;;;;;;;0.79;100.00;99444.66;5117873;28;20043;-79
2022/02/14 06:26:49;;;;;;;24.23;14.18;;;;;;;0.81;100.00;99442.94;5117375;28;20076;-79
2022/02/14 06:29:33;;;;;;;24.35;14.45;;;;;;;0.83;100.00;99448.97;5117636;28;20125;-78
2022/02/14 06:32:18;;;;;;;25.13;14.75;;;;;;;0.93;100.00;99448.19;5118269;28;20039;-79
2022/02/14 06:35:04;;;;;;;32.38;17.85;;;;;;;1.00;100.00;99453.41;5118200;28;20036;-78
2022/02/14 06:37:48;;;;;;;34.70;19.98;;;;;;;1.00;100.00;99453.41;5103794;28;20369;-79
2022/02/14 06:40:33;;;;;;;32.08;18.23;;;;;;;1.00;100.00;99449.09;5119348;28;20193;-79
2022/02/14 06:43:18;;;;;;;27.60;15.10;;;;;;;1.06;100.00;99448.28;5119211;28;20048;-78
2022/02/14 06:46:04;;;;;;;22.85;13.30;;;;;;;1.20;100.00;99451.81;5118604;28;20039;-79
2022/02/14 06:48:49;;;;;;;22.35;13.32;;;;;;;1.33;100.00;99455.34;5118691;28;20088;-79
2022/02/14 06:51:35;;;;;;;20.42;12.88;;;;;;;1.39;100.00;99458.84;5118543;28;20090;-79
2022/02/14 06:54:19;;;;;;;24.88;13.18;;;;;;;1.59;100.00;99458.97;5119302;28;20155;-78
2022/02/14 06:57:03;;;;;;;24.52;14.73;;;;;;;1.70;100.00;99455.59;5118562;28;20067;-79
2022/02/14 06:59:48;;;;;;;28.35;16.13;;;;;;;1.82;100.00;99456.50;5119253;28;20043;-78
2022/02/14 07:02:32;;;;;;;25.48;14.68;;;;;;;2.03;99.21;99457.44;5103360;28;20073;-79
2022/02/14 07:05:19;;;;;;;22.92;14.15;;;;;;;2.39;97.42;99461.88;5117258;28;20139;-80
2022/02/14 07:08:04;;;;;;;22.52;12.98;;;;;;;2.62;94.75;99454.16;5118658;28;20040;-79
2022/02/14 07:10:49;;;;;;;25.75;15.82;;;;;;;2.53;94.95;99454.13;5118745;28;20039;-79
2022/02/14 07:13:33;;;;;;;28.67;16.00;;;;;;;2.69;94.86;99460.19;5119181;28;20039;-79
2022/02/14 07:16:18;;;;;;;28.77;16.95;;;;;;;2.95;93.17;99458.47;5119138;28;20036;-79
2022/02/14 07:19:02;;;;;;;24.77;15.18;;;;;;;3.27;91.95;99460.19;5118895;28;20446;-79
2022/02/14 07:21:47;;;;;;;21.77;14.90;;;;;;;3.31;90.10;99451.56;5102489;28;20067;-80
2022/02/14 07:24:32;;;;;;;26.30;16.60;;;;;;;3.60;89.85;99466.19;5115798;28;20035;-79
2022/02/14 07:27:16;;;;;;;28.20;15.63;;;;;;;3.81;87.66;99460.97;5104367;27;20040;-80
2022/02/14 07:30:07;;;;;;;23.17;14.05;;;;;;;4.01;86.78;99460.88;5094536;28;20382;-80
2022/02/14 07:32:52;;;;;;;27.50;15.20;;;;;;;4.29;85.45;99460.75;5095304;28;20443;-80
2022/02/14 07:35:37;;;;;;;27.50;16.67;;;;;;;4.39;83.92;99465.88;5094034;28;20427;-80
2022/02/14 07:38:22;;;;;;;24.38;14.05;;;;;;;4.49;84.01;99471.03;5095062;28;20047;-80
2022/02/14 07:41:06;;;;;;;23.75;14.68;;;;;;;4.63;83.08;99462.28;5081894;28;20040;-80
2022/02/14 07:43:51;;;;;;;23.00;14.25;;;;;;;4.78;81.88;99442.31;5097680;28;20040;-80
2022/02/14 07:46:34;;;;;;;22.40;14.73;;;;;;;5.26;81.43;99455.72;5097355;28;20036;-80
2022/02/14 07:49:21;;;;;;;21.23;13.43;;;;;;;5.53;80.00;99459.81;5082891;28;20040;-80
2022/02/14 07:52:05;;;;;;;23.17;15.52;;;;;;;5.61;78.08;99466.63;5083281;28;20415;-80
2022/02/14 07:54:51;;;;;;;25.08;14.88;;;;;;;5.97;78.38;99464.53;5097280;28;20047;-81
2022/02/14 07:57:36;;;;;;;20.77;13.57;;;;;;;5.97;75.82;99461.94;5097082;28;20422;-81
2022/02/14 08:00:22;;;;;;;21.02;13.23;;;;;;;6.06;75.80;99448.84;5082217;28;20040;-82
2022/02/14 08:03:06;;;;;;;27.05;15.43;;;;;;;6.12;75.42;99463.50;5096544;28;20036;-81
2022/02/14 08:05:51;;;;;;;20.58;12.20;;;;;;;6.15;74.86;99460.88;5082315;28;20051;-81
2022/02/14 08:08:35;;;;;;;29.95;16.75;;;;;;;6.48;72.89;99462.16;5096543;28;20354;-82
2022/02/14 08:11:19;;;;;;;21.10;12.48;;;;;;;6.45;73.04;99456.13;5097061;28;20059;-82
2022/02/14 08:14:04;;;;;;;19.50;13.38;;;;;;;6.63;72.33;99450.69;5097666;28;20040;-81
2022/02/14 08:16:49;;;;;;;18.13;12.00;;;;;;;6.48;72.71;99446.56;5097073;28;20319;-82
2022/02/14 08:19:34;;;;;;;17.52;12.98;;;;;;;6.61;72.07;99448.97;5097337;28;20044;-81
2022/02/14 08:22:18;;;;;;;22.13;12.98;;;;;;;6.68;72.30;99440.19;5096959;28;20063;-82
2022/02/14 08:25:03;;;;;;;21.67;13.75;;;;;;;6.80;72.02;99447.81;5097089;28;20051;-82
2022/02/14 08:27:48;;;;;;;20.52;13.30;;;;;;;6.89;71.19;99442.47;5096472;28;20051;-81
2022/02/14 08:30:32;;;;;;;22.65;14.95;;;;;;;7.13;71.40;99448.16;5096107;28;20044;-81
2022/02/14 08:33:18;;;;;;;18.20;11.93;;;;;;;6.96;69.68;99438.88;5096268;28;20044;-80
2022/02/14 08:36:03;;;;;;;18.30;12.07;;;;;;;7.01;70.52;99437.03;5079728;28;20068;-81
2022/02/14 08:38:47;;;;;;;18.50;12.00;;;;;;;7.00;70.07;99435.34;5093923;28;20097;-81
2022/02/14 08:41:32;;;;;;;16.67;11.30;;;;;;;7.36;70.22;99440.81;5093892;28;20045;-82
2022/02/14 08:44:16;;;;;;;21.42;12.95;;;;;;;7.33;70.06;99435.66;5094670;28;20040;-83
2022/02/14 08:47:00;;;;;;;20.77;12.50;;;;;;;7.11;69.00;99429.94;5094679;28;20051;-81
2022/02/14 08:49:46;;;;;;;16.70;11.20;;;;;;;7.32;68.35;99420.06;5094780;28;20043;-80
2022/02/14 08:52:31;;;;;;;15.50;11.07;;;;;;;7.38;67.90;99423.41;5081173;28;20123;-80
2022/02/14 08:55:17;;;;;;;15.48;11.07;;;;;;;7.45;68.43;99440.66;5097118;28;20051;-81
2022/02/14 08:58:01;;;;;;;17.95;11.15;;;;;;;7.32;67.99;99426.13;5081586;28;20044;-81
2022/02/14 09:00:48;;;;;;;18.20;11.15;;;;;;;7.45;67.35;99426.75;5095538;28;20040;-80
2022/02/14 09:03:33;;;;;;;14.52;8.82;;;;;;;7.58;66.82;99424.78;5095564;28;20055;-81
2022/02/14 09:06:18;;;;;;;18.90;10.15;;;;;;;7.61;67.21;99422.13;5095308;28;20040;-80
2022/02/14 09:09:02;;;;;;;22.85;11.73;;;;;;;7.55;66.48;99412.66;5095635;28;20044;-80
2022/02/14 09:11:48;;;;;;;12.93;9.40;;;;;;;7.62;67.21;99418.63;5096559;28;20040;-80
2022/02/14 09:14:32;;;;;;;16.73;10.65;;;;;;;7.80;66.57;99406.97;5096093;28;20389;-81
2022/02/14 09:17:18;;;;;;;14.70;10.00;;;;;;;7.75;65.83;99409.66;5095301;28;20036;-79
2022/02/14 09:20:03;;;;;;;18.42;10.60;;;;;;;7.60;65.39;99416.03;5081374;28;20445;-79
2022/02/14 09:22:48;;;;;;;24.08;12.35;;;;;;;7.63;64.77;99413.38;5095964;28;20052;-79
2022/02/14 09:25:32;;;;;;;19.50;11.20;;;;;;;7.64;65.34;99398.59;5095442;28;20040;-80
2022/02/14 09:28:16;;;;;;;32.60;15.93;;;;;;;7.84;65.84;99386.03;5094557;28;20059;-80
2022/02/14 09:31:02;;;;;;;26.38;15.52;;;;;;;7.99;64.73;99387.44;5096276;28;20047;-84
2022/02/14 09:33:46;;;;;;;23.17;12.48;;;;;;;8.08;65.39;99389.00;5096166;28;20097;-81
2022/02/14 09:36:32;;;;;;;29.23;16.70;;;;;;;8.23;64.12;99393.03;5095483;28;20040;-83
2022/02/14 09:39:17;;;;;;;26.17;15.20;;;;;;;8.18;63.74;99399.19;5095281;28;20434;-80
2022/02/14 09:42:03;;;;;;;23.70;14.10;;;;;;;8.31;64.37;99393.72;5080772;28;20098;-81
2022/02/14 09:44:48;;;;;;;29.13;16.35;;;;;;;8.47;63.60;99396.88;5094935;28;20036;-82
2022/02/14 09:47:32;;;;;;;24.45;15.23;;;;;;;8.48;62.90;99383.75;5095015;28;20046;-82
2022/02/14 09:50:16;;;;;;;34.88;16.63;;;;;;;8.54;63.17;99382.78;5094964;28;20351;-81
2022/02/14 09:53:04;;;;;;;27.42;14.63;;;;;;;8.56;62.50;99379.25;5095211;28;20047;-82
2022/02/14 09:55:49;;;;;;;25.27;11.85;;;;;;;8.49;61.04;99385.50;5096177;28;20145;-81
2022/02/14 09:58:34;;;;;;;20.30;11.02;;;;;;;8.60;61.79;99375.66;5095373;28;20119;-81
2022/02/14 10:01:18;;;;;;;24.40;12.90;;;;;;;8.79;62.75;99386.53;5095014;28;20044;-82
2022/02/14 10:04:04;;;;;;;16.00;10.88;;;;;;;8.94;62.09;99376.56;5081118;28;20040;-82
2022/02/14 10:06:50;;;;;;;19.83;11.20;;;;;;;8.95;60.02;99354.81;5095520;28;20044;-82
2022/02/14 10:09:36;;;;;;;25.25;13.23;;;;;;;9.16;59.10;99379.50;5080789;28;20424;-82
2022/02/14 10:12:21;;;;;;;15.30;10.70;;;;;;;9.01;58.74;99370.31;5080526;28;20047;-82
2022/02/14 10:15:05;;;;;;;16.85;10.88;;;;;;;9.09;58.57;99369.22;5095801;28;20047;-82
2022/02/14 10:17:53;;;;;;;19.10;9.93;;;;;;;8.94;58.39;99345.22;5096142;28;20109;-82
2022/02/14 10:20:38;;;;;;;16.58;10.25;;;;;;;9.06;57.56;99368.44;5081181;28;20040;-80
2022/02/14 10:23:22;;;;;;;14.80;9.70;;;;;;;8.99;57.40;99356.44;5095560;28;20059;-81
2022/02/14 10:26:06;;;;;;;43.92;27.88;;;;;;;8.99;58.67;99361.66;5095675;28;20036;-80
2022/02/14 10:28:51;;;;;;;24.25;17.70;;;;;;;9.00;57.57;99350.31;5094919;28;20044;-81
2022/02/14 10:31:50;;;;;;;18.13;12.38;;;;;;;8.93;58.43;99352.22;5094684;28;20040;-81
2022/02/14 10:34:40;;;;;;;22.50;11.43;;;;;;;9.18;58.43;99362.03;5094682;28;20044;-82
2022/02/14 10:37:39;;;;;;;21.48;13.25;;;;;;;9.18;58.71;99347.22;5094559;28;20040;-82
2022/02/14 10:40:30;;;;;;;19.15;11.52;;;;;;;9.27;58.83;99346.13;5097698;28;20044;-81
2022/02/14 10:43:36;;;;;;;20.13;12.73;;;;;;;9.30;59.42;99341.66;5096610;28;20112;-80
2022/02/14 10:46:23;;;;;;;25.13;14.57;;;;;;;9.25;61.34;99338.31;5096263;28;20044;-79
2022/02/14 10:49:08;;;;;;;21.55;12.05;;;;;;;9.31;60.12;99330.31;5097080;28;20044;-78
2022/02/14 10:52:00;;;;;;;23.42;12.57;;;;;;;9.45;60.36;99336.91;5096360;28;20362;-79
2022/02/14 10:54:45;;;;;;;26.25;13.88;;;;;;;9.60;59.36;99346.94;5096230;28;20051;-78
2022/02/14 10:57:35;;;;;;;25.40;13.73;;;;;;;9.58;59.24;99330.44;5097515;28;20346;-80
2022/02/14 11:00:22;;;;;;;19.65;11.25;;;;;;;9.35;59.77;99325.84;5096257;28;20040;-80
2022/02/14 11:03:09;;;;;;;19.27;11.80;;;;;;;9.53;59.80;99337.56;5096562;28;20093;-79
2022/02/14 11:05:53;;;;;;;16.55;10.43;;;;;;;9.72;60.11;99333.53;5096764;28;20422;-78
2022/02/14 11:08:41;;;;;;;15.85;9.38;;;;;;;9.87;57.95;99326.13;5097914;28;20331;-80
2022/02/14 11:11:26;;;;;;;18.73;9.27;;;;;;;9.98;58.14;99321.44;5098266;28;20051;-80
2022/02/14 11:14:11;;;;;;;19.02;9.82;;;;;;;9.93;57.31;99312.84;5083389;28;20457;-78
2022/02/14 11:16:58;;;;;;;17.63;11.27;;;;;;;9.93;56.77;99315.47;5083795;28;20040;-79
2022/02/14 11:19:45;;;;;;;14.30;9.60;;;;;;;9.92;56.71;99319.00;5083881;28;20039;-80
2022/02/14 11:22:32;;;;;;;13.85;9.35;;;;;;;9.72;56.75;99304.75;5097649;28;20055;-78
2022/02/14 11:25:36;;;;;;;14.60;9.32;;;;;;;9.85;56.83;99305.25;5097999;28;20044;-79
2022/02/14 11:28:30;;;;;;;29.77;17.25;;;;;;;10.01;57.16;99287.34;5098617;28;20036;-78
2022/02/14 11:31:17;;;;;;;20.30;12.23;;;;;;;9.96;56.05;99295.31;5097691;28;20055;-79
2022/02/14 11:34:03;;;;;;;14.27;10.70;;;;;;;9.97;56.39;99291.78;5083529;28;20143;-79
2022/02/14 11:36:58;;;;;;;20.23;12.77;;;;;;;9.99;54.39;99294.34;5097770;28;20063;-78
2022/02/14 11:39:46;;;;;;;16.48;8.90;;;;;;;9.89;55.78;99283.31;5098483;28;20036;-79
2022/02/14 11:42:31;;;;;;;16.77;10.18;;;;;;;10.10;54.69;99299.25;5083455;28;20040;-78
2022/02/14 11:45:15;;;;;;;12.98;9.38;;;;;;;10.06;55.05;99280.19;5083049;28;20047;-80
2022/02/14 11:48:36;;;;;;;13.98;7.82;;;;;;;9.99;55.58;99289.13;5097752;28;20102;-80
2022/02/14 11:51:24;;;;;;;15.88;9.52;;;;;;;10.13;55.92;99279.06;5081985;28;20040;-80
2022/02/14 11:54:35;;;;;;;14.38;9.63;;;;;;;10.26;57.63;99284.81;5083001;28;20031;-79
2022/02/14 11:57:26;;;;;;;13.88;9.10;;;;;;;10.34;57.77;99274.13;5097239;28;20040;-79
2022/02/14 12:00:11;;;;;;;17.38;12.25;;;;;;;10.29;56.49;99267.25;5082444;28;20040;-79
2022/02/14 12:03:00;;;;;;;20.98;13.00;;;;;;;10.15;57.00;99272.03;5096653;28;20353;-77
2022/02/14 12:06:04;;;;;;;17.35;11.05;;;;;;;10.33;56.83;99261.91;5097243;28;20181;-79
2022/02/14 12:09:01;;;;;;;20.73;13.48;;;;;;;10.27;57.01;99245.50;5096540;28;20043;-79
2022/02/14 12:11:47;;;;;;;15.77;10.65;;;;;;;10.35;57.05;99254.88;5097201;28;20102;-78
2022/02/14 12:14:31;;;;;;;17.17;11.65;;;;;;;10.32;55.79;99253.22;5096442;28;20043;-79
2022/02/14 12:20:43;;;;;;;16.98;10.07;;;;;;;10.24;54.38;99216.78;5096886;28;20098;-79
2022/02/14 12:23:37;;;;;;;40.88;22.52;;;;;;;10.20;55.27;99223.00;5096083;28;20052;-78
2022/02/14 12:26:28;;;;;;;45.35;25.35;;;;;;;10.16;54.98;99224.03;5096415;28;20051;-79
2022/02/14 12:32:17;;;;;;;25.05;13.13;;;;;;;10.03;53.62;99207.00;5096672;28;20044;-80
2022/02/14 12:35:02;;;;;;;25.58;11.95;;;;;;;10.01;53.72;99209.69;5096084;28;20051;-80
2022/02/14 12:37:49;;;;;;;24.30;11.38;;;;;;;9.94;53.36;99204.69;5096873;28;20438;-80
2022/02/14 12:40:51;;;;;;;11.40;8.43;;;;;;;9.91;52.76;99203.06;5096519;28;20339;-82
2022/02/14 12:43:44;;;;;;;22.70;14.25;;;;;;;9.89;53.61;99209.22;5095766;28;20346;-83
2022/02/14 12:46:30;;;;;;;11.43;7.03;;;;;;;9.92;52.75;99196.06;5081917;28;20043;-86
2022/02/14 12:49:15;;;;;;;14.32;7.82;;;;;;;9.76;53.56;99204.38;5094502;28;20044;-83
2022/02/14 12:52:16;;;;;;;12.88;7.93;;;;;;;9.76;53.53;99199.16;5093746;28;20043;-83
2022/02/14 12:55:01;;;;;;;17.67;9.63;;;;;;;9.59;53.82;99180.53;5093698;28;20112;-85
2022/02/14 12:57:55;;;;;;;15.50;8.55;;;;;;;9.68;53.66;99201.13;5093719;28;20422;-83